sensor_id;sensor_type;location;lat;lon;timestamp;pressure;altitude;pressure_sealevel;temperature;humidity
79250;BME280;68679;51.030;7.584;2024-01-15T00:01:58;97599.59;;;1.99;76.89
79250;BME280;68679;51.030;7.584;2024-01-15T00:04:24;97600.34;;;2.00;76.92
79250;BME280;68679;51.030;7.584;2024-01-15T00:06:49;97599.31;;;1.96;76.91
79250;BME280;68679;51.030;7.584;2024-01-15T00:09:15;97589.72;;;1.91;76.86
79250;BME280;68679;51.030;7.584;2024-01-15T00:11:40;97600.06;;;1.91;77.05
79250;BME280;68679;51.030;7.584;2024-01-15T00:14:06;97592.84;;;1.93;76.98
79250;BME280;68679;51.030;7.584;2024-01-15T00:16:31;97591.28;;;1.92;77.10
79250;BME280;68679;51.030;7.584;2024-01-15T00:18:56;97596.19;;;1.94;77.22
79250;BME280;68679;51.030;7.584;2024-01-15T00:21:22;97588.69;;;1.92;76.93
79250;BME280;68679;51.030;7.584;2024-01-15T00:23:48;97581.19;;;1.91;76.94
79250;BME280;68679;51.030;7.584;2024-01-15T00:26:13;97573.44;;;1.91;76.95
79250;BME280;68679;51.030;7.584;2024-01-15T00:28:39;97579.13;;;1.93;76.91
79250;BME280;68679;51.030;7.584;2024-01-15T00:31:04;97572.94;;;1.88;76.97
79250;BME280;68679;51.030;7.584;2024-01-15T00:33:30;97574.97;;;1.86;76.87
79250;BME280;68679;51.030;7.584;2024-01-15T00:35:55;97566.44;;;1.86;77.06
79250;BME280;68679;51.030;7.584;2024-01-15T00:38:20;97569.53;;;1.88;77.30
79250;BME280;68679;51.030;7.584;2024-01-15T00:40:46;97566.72;;;1.90;76.84
79250;BME280;68679;51.030;7.584;2024-01-15T00:43:11;97557.69;;;1.92;76.94
79250;BME280;68679;51.030;7.584;2024-01-15T00:45:36;97555.09;;;1.92;77.02
79250;BME280;68679;51.030;7.584;2024-01-15T00:48:02;97555.88;;;1.93;76.97
79250;BME280;68679;51.030;7.584;2024-01-15T00:50:27;97553.28;;;1.93;77.15
79250;BME280;68679;51.030;7.584;2024-01-15T00:52:53;97551.75;;;1.92;77.06
79250;BME280;68679;51.030;7.584;2024-01-15T00:55:18;97560.25;;;1.92;77.03
79250;BME280;68679;51.030;7.584;2024-01-15T00:57:43;97559.22;;;1.93;77.03
79250;BME280;68679;51.030;7.584;2024-01-15T01:00:09;97559.22;;;1.93;77.12
79250;BME280;68679;51.030;7.584;2024-01-15T01:02:34;97560.78;;;1.94;77.00
79250;BME280;68679;51.030;7.584;2024-01-15T01:05:00;97563.38;;;1.94;77.07
79250;BME280;68679;51.030;7.584;2024-01-15T01:07:25;97563.13;;;1.96;77.13
79250;BME280;68679;51.030;7.584;2024-01-15T01:09:50;97565.44;;;1.92;76.77
79250;BME280;68679;51.030;7.584;2024-01-15T01:12:16;97559.75;;;1.90;76.57
79250;BME280;68679;51.030;7.584;2024-01-15T01:14:42;97550.19;;;1.91;76.70
79250;BME280;68679;51.030;7.584;2024-01-15T01:17:07;97547.34;;;1.92;77.02
79250;BME280;68679;51.030;7.584;2024-01-15T01:19:32;97553.28;;;1.93;76.81
79250;BME280;68679;51.030;7.584;2024-01-15T01:21:57;97554.84;;;1.94;77.01
79250;BME280;68679;51.030;7.584;2024-01-15T01:24:23;97559.19;;;1.88;76.72
79250;BME280;68679;51.030;7.584;2024-01-15T01:26:48;97557.41;;;1.88;76.52
79250;BME280;68679;51.030;7.584;2024-01-15T01:29:14;97563.06;;;1.85;76.49
79250;BME280;68679;51.030;7.584;2024-01-15T01:31:44;97565.16;;;1.83;76.54
79250;BME280;68679;51.030;7.584;2024-01-15T01:34:10;97559.47;;;1.86;76.72
79250;BME280;68679;51.030;7.584;2024-01-15T01:36:35;97552.25;;;1.88;76.98
79250;BME280;68679;51.030;7.584;2024-01-15T01:39:00;97558.19;;;1.89;76.81
79250;BME280;68679;51.030;7.584;2024-01-15T01:41:26;97555.31;;;1.85;76.94
79250;BME280;68679;51.030;7.584;2024-01-15T01:43:51;97550.69;;;1.82;76.50
79250;BME280;68679;51.030;7.584;2024-01-15T01:46:16;97555.59;;;1.84;77.04
79250;BME280;68679;51.030;7.584;2024-01-15T01:48:42;97543.19;;;1.86;76.88
79250;BME280;68679;51.030;7.584;2024-01-15T01:51:08;97547.09;;;1.88;76.86
79250;BME280;68679;51.030;7.584;2024-01-15T01:53:34;97545.25;;;1.84;76.95
79250;BME280;68679;51.030;7.584;2024-01-15T01:56:00;97542.66;;;1.84;76.99
79250;BME280;68679;51.030;7.584;2024-01-15T01:58:27;97543.19;;;1.86;76.87
79250;BME280;68679;51.030;7.584;2024-01-15T02:00:53;97547.84;;;1.89;76.97
79250;BME280;68679;51.030;7.584;2024-01-15T02:03:19;97542.91;;;1.87;76.82
79250;BME280;68679;51.030;7.584;2024-01-15T02:05:47;97534.91;;;1.84;76.75
79250;BME280;68679;51.030;7.584;2024-01-15T02:08:14;97546.50;;;1.81;76.64
79250;BME280;68679;51.030;7.584;2024-01-15T02:10:39;97543.69;;;1.83;76.70
79250;BME280;68679;51.030;7.584;2024-01-15T02:13:05;97545.50;;;1.82;76.89
79250;BME280;68679;51.030;7.584;2024-01-15T02:15:30;97548.09;;;1.82;76.92
79250;BME280;68679;51.030;7.584;2024-01-15T02:20:27;97553.00;;;1.84;76.72
79250;BME280;68679;51.030;7.584;2024-01-15T02:22:52;97558.16;;;1.84;76.82
79250;BME280;68679;51.030;7.584;2024-01-15T02:25:18;97562.03;;;1.86;76.94
79250;BME280;68679;51.030;7.584;2024-01-15T02:27:44;97565.66;;;1.85;77.11
79250;BME280;68679;51.030;7.584;2024-01-15T02:30:11;97557.41;;;1.88;77.08
79250;BME280;68679;51.030;7.584;2024-01-15T02:32:36;97557.16;;;1.90;77.02
79250;BME280;68679;51.030;7.584;2024-01-15T02:35:02;97561.00;;;1.87;76.92
79250;BME280;68679;51.030;7.584;2024-01-15T02:37:27;97557.13;;;1.85;77.02
79250;BME280;68679;51.030;7.584;2024-01-15T02:39:52;97563.59;;;1.87;76.88
79250;BME280;68679;51.030;7.584;2024-01-15T02:42:17;97572.13;;;1.88;77.22
79250;BME280;68679;51.030;7.584;2024-01-15T02:44:43;97569.53;;;1.88;76.62
79250;BME280;68679;51.030;7.584;2024-01-15T02:47:08;97561.56;;;1.90;77.29
79250;BME280;68679;51.030;7.584;2024-01-15T02:49:33;97566.94;;;1.88;76.35
79250;BME280;68679;51.030;7.584;2024-01-15T02:51:58;97568.75;;;1.87;76.86
79250;BME280;68679;51.030;7.584;2024-01-15T02:54:24;97564.38;;;1.88;76.95
79250;BME280;68679;51.030;7.584;2024-01-15T02:56:49;97570.56;;;1.87;76.53
79250;BME280;68679;51.030;7.584;2024-01-15T02:59:14;97570.34;;;1.88;76.81
79250;BME280;68679;51.030;7.584;2024-01-15T03:01:40;97568.75;;;1.87;77.03
79250;BME280;68679;51.030;7.584;2024-01-15T03:04:05;97567.72;;;1.83;76.70
79250;BME280;68679;51.030;7.584;2024-01-15T03:06:30;97561.53;;;1.84;76.86
79250;BME280;68679;51.030;7.584;2024-01-15T03:08:55;97561.00;;;1.87;76.88
79250;BME280;68679;51.030;7.584;2024-01-15T03:11:21;97552.78;;;1.91;76.96
79250;BME280;68679;51.030;7.584;2024-01-15T03:13:46;97557.41;;;1.88;76.74
79250;BME280;68679;51.030;7.584;2024-01-15T03:16:11;97553.25;;;1.87;76.76
79250;BME280;68679;51.030;7.584;2024-01-15T03:18:37;97565.19;;;1.88;77.04
79250;BME280;68679;51.030;7.584;2024-01-15T03:21:02;97563.09;;;1.91;76.79
79250;BME280;68679;51.030;7.584;2024-01-15T03:23:27;97565.19;;;1.88;76.75
79250;BME280;68679;51.030;7.584;2024-01-15T03:25:52;97564.13;;;1.84;76.78
79250;BME280;68679;51.030;7.584;2024-01-15T03:28:18;97570.31;;;1.83;76.58
79250;BME280;68679;51.030;7.584;2024-01-15T03:30:43;97565.38;;;1.82;76.70
79250;BME280;68679;51.030;7.584;2024-01-15T03:33:08;97565.38;;;1.82;77.07
79250;BME280;68679;51.030;7.584;2024-01-15T03:35:34;97557.91;;;1.85;77.00
79250;BME280;68679;51.030;7.584;2024-01-15T03:37:59;97560.75;;;1.84;76.69
79250;BME280;68679;51.030;7.584;2024-01-15T03:40:25;97556.88;;;1.86;76.95
79250;BME280;68679;51.030;7.584;2024-01-15T03:42:51;97556.88;;;1.86;77.08
79250;BME280;68679;51.030;7.584;2024-01-15T03:45:16;97562.03;;;1.86;76.99
79250;BME280;68679;51.030;7.584;2024-01-15T03:47:41;97556.09;;;1.86;76.56
79250;BME280;68679;51.030;7.584;2024-01-15T03:50:07;97564.38;;;1.88;76.82
79250;BME280;68679;51.030;7.584;2024-01-15T03:52:32;97569.75;;;1.81;76.77
79250;BME280;68679;51.030;7.584;2024-01-15T03:54:57;97571.88;;;1.84;76.84
79250;BME280;68679;51.030;7.584;2024-01-15T03:57:22;97572.34;;;1.76;76.68
79250;BME280;68679;51.030;7.584;2024-01-15T03:59:48;97559.44;;;1.76;76.94
79250;BME280;68679;51.030;7.584;2024-01-15T04:02:13;97559.97;;;1.83;76.89
79250;BME280;68679;51.030;7.584;2024-01-15T04:04:42;97568.22;;;1.80;76.81
79250;BME280;68679;51.030;7.584;2024-01-15T04:07:09;97558.91;;;1.79;76.89
79250;BME280;68679;51.030;7.584;2024-01-15T04:09:34;97556.84;;;1.81;77.07
79250;BME280;68679;51.030;7.584;2024-01-15T04:12:00;97561.53;;;1.84;76.90
79250;BME280;68679;51.030;7.584;2024-01-15T04:14:25;97556.09;;;1.86;76.94
79250;BME280;68679;51.030;7.584;2024-01-15T04:16:50;97552.47;;;1.87;77.00
79250;BME280;68679;51.030;7.584;2024-01-15T04:19:15;97548.34;;;1.86;76.89
79250;BME280;68679;51.030;7.584;2024-01-15T04:21:40;97545.50;;;1.87;76.70
79250;BME280;68679;51.030;7.584;2024-01-15T04:24:06;97539.06;;;1.90;76.90
79250;BME280;68679;51.030;7.584;2024-01-15T04:26:31;97548.09;;;1.87;76.77
79250;BME280;68679;51.030;7.584;2024-01-15T04:28:57;97539.56;;;1.87;76.98
79250;BME280;68679;51.030;7.584;2024-01-15T04:31:24;97539.81;;;1.85;76.85
79250;BME280;68679;51.030;7.584;2024-01-15T04:33:50;97533.34;;;1.83;76.46
79250;BME280;68679;51.030;7.584;2024-01-15T04:36:15;97536.94;;;1.82;76.85
79250;BME280;68679;51.030;7.584;2024-01-15T04:38:40;97533.09;;;1.84;77.02
79250;BME280;68679;51.030;7.584;2024-01-15T04:41:05;97529.75;;;1.84;76.98
79250;BME280;68679;51.030;7.584;2024-01-15T04:43:31;97528.41;;;1.81;77.00
79250;BME280;68679;51.030;7.584;2024-01-15T04:45:57;97525.09;;;1.86;77.08
79250;BME280;68679;51.030;7.584;2024-01-15T04:48:22;97526.91;;;1.85;76.99
79250;BME280;68679;51.030;7.584;2024-01-15T04:50:48;97526.91;;;1.85;76.96
79250;BME280;68679;51.030;7.584;2024-01-15T04:53:13;97513.47;;;1.83;76.95
79250;BME280;68679;51.030;7.584;2024-01-15T04:55:38;97522.75;;;1.84;77.10
79250;BME280;68679;51.030;7.584;2024-01-15T04:58:04;97518.88;;;1.87;76.97
79250;BME280;68679;51.030;7.584;2024-01-15T05:00:29;97508.31;;;1.88;76.99
79250;BME280;68679;51.030;7.584;2024-01-15T05:02:54;97512.69;;;1.88;76.95
79250;BME280;68679;51.030;7.584;2024-01-15T05:05:21;97510.09;;;1.88;77.05
79250;BME280;68679;51.030;7.584;2024-01-15T05:07:46;97505.47;;;1.90;77.04
79250;BME280;68679;51.030;7.584;2024-01-15T05:10:11;97495.63;;;1.87;76.77
79250;BME280;68679;51.030;7.584;2024-01-15T05:12:37;97496.41;;;1.87;76.94
79250;BME280;68679;51.030;7.584;2024-01-15T05:15:03;97493.81;;;1.87;76.79
79250;BME280;68679;51.030;7.584;2024-01-15T05:17:28;97497.72;;;1.90;76.98
79250;BME280;68679;51.030;7.584;2024-01-15T05:19:53;97491.53;;;1.91;76.95
79250;BME280;68679;51.030;7.584;2024-01-15T05:22:19;97493.59;;;1.89;76.98
79250;BME280;68679;51.030;7.584;2024-01-15T05:24:44;97490.47;;;1.87;76.62
79250;BME280;68679;51.030;7.584;2024-01-15T05:27:09;97496.41;;;1.87;76.82
79250;BME280;68679;51.030;7.584;2024-01-15T05:29:34;97484.03;;;1.90;76.90
79250;BME280;68679;51.030;7.584;2024-01-15T05:32:00;97489.97;;;1.90;76.89
79250;BME280;68679;51.030;7.584;2024-01-15T05:34:25;97493.81;;;1.87;76.64
79250;BME280;68679;51.030;7.584;2024-01-15T05:36:50;97492.53;;;1.85;76.67
79250;BME280;68679;51.030;7.584;2024-01-15T05:39:15;97491.50;;;1.86;76.80
79250;BME280;68679;51.030;7.584;2024-01-15T05:41:40;97495.13;;;1.85;76.80
79250;BME280;68679;51.030;7.584;2024-01-15T05:44:06;97492.25;;;1.81;77.12
79250;BME280;68679;51.030;7.584;2024-01-15T05:46:31;97490.22;;;1.83;77.10
79250;BME280;68679;51.030;7.584;2024-01-15T05:48:56;97495.41;;;1.88;77.10
79250;BME280;68679;51.030;7.584;2024-01-15T05:51:22;97499.00;;;1.87;76.94
79250;BME280;68679;51.030;7.584;2024-01-15T05:53:47;97505.97;;;1.87;76.98
79250;BME280;68679;51.030;7.584;2024-01-15T05:56:12;97493.03;;;1.87;76.86
79250;BME280;68679;51.030;7.584;2024-01-15T05:58:37;97492.28;;;1.86;76.90
79250;BME280;68679;51.030;7.584;2024-01-15T06:01:03;97482.97;;;1.85;76.85
79250;BME280;68679;51.030;7.584;2024-01-15T06:03:29;97479.88;;;1.83;77.07
79250;BME280;68679;51.030;7.584;2024-01-15T06:05:54;97484.53;;;1.86;76.82
79250;BME280;68679;51.030;7.584;2024-01-15T06:08:19;97476.00;;;1.86;76.96
79250;BME280;68679;51.030;7.584;2024-01-15T06:10:46;97477.81;;;1.85;76.93
79250;BME280;68679;51.030;7.584;2024-01-15T06:13:11;97478.84;;;1.84;76.90
79250;BME280;68679;51.030;7.584;2024-01-15T06:15:36;97479.88;;;1.83;77.00
79250;BME280;68679;51.030;7.584;2024-01-15T06:18:01;97474.69;;;1.83;76.93
79250;BME280;68679;51.030;7.584;2024-01-15T06:20:27;97470.31;;;1.84;76.96
79250;BME280;68679;51.030;7.584;2024-01-15T06:22:52;97469.53;;;1.83;76.97
79250;BME280;68679;51.030;7.584;2024-01-15T06:25:18;97467.19;;;1.82;76.94
79250;BME280;68679;51.030;7.584;2024-01-15T06:27:43;97469.75;;;1.82;77.21
79250;BME280;68679;51.030;7.584;2024-01-15T06:30:09;97455.59;;;1.84;76.93
79250;BME280;68679;51.030;7.584;2024-01-15T06:32:34;97456.34;;;1.85;76.91
79250;BME280;68679;51.030;7.584;2024-01-15T06:35:00;97459.19;;;1.83;76.92
79250;BME280;68679;51.030;7.584;2024-01-15T06:37:25;97454.03;;;1.83;77.08
79250;BME280;68679;51.030;7.584;2024-01-15T06:39:50;97448.34;;;1.86;77.11
79250;BME280;68679;51.030;7.584;2024-01-15T06:42:15;97455.84;;;1.88;76.95
79250;BME280;68679;51.030;7.584;2024-01-15T06:44:41;97450.66;;;1.88;77.01
79250;BME280;68679;51.030;7.584;2024-01-15T06:47:06;97450.91;;;1.86;77.02
79250;BME280;68679;51.030;7.584;2024-01-15T06:49:31;97459.44;;;1.87;77.10
79250;BME280;68679;51.030;7.584;2024-01-15T06:51:56;97454.28;;;1.87;77.22
79250;BME280;68679;51.030;7.584;2024-01-15T06:54:22;97449.13;;;1.87;76.67
79250;BME280;68679;51.030;7.584;2024-01-15T06:56:48;97445.25;;;1.90;77.09
79250;BME280;68679;51.030;7.584;2024-01-15T06:59:13;97450.66;;;1.88;76.86
79250;BME280;68679;51.030;7.584;2024-01-15T07:01:39;97449.91;;;1.82;77.04
79250;BME280;68679;51.030;7.584;2024-01-15T07:04:04;97449.66;;;1.89;77.05
79250;BME280;68679;51.030;7.584;2024-01-15T07:06:29;97458.41;;;1.88;77.15
79250;BME280;68679;51.030;7.584;2024-01-15T07:08:56;97447.84;;;1.90;77.01
79250;BME280;68679;51.030;7.584;2024-01-15T07:11:21;97450.16;;;1.91;76.99
79250;BME280;68679;51.030;7.584;2024-01-15T07:13:46;97457.16;;;1.91;77.10
79250;BME280;68679;51.030;7.584;2024-01-15T07:16:12;97446.56;;;1.92;77.13
79250;BME280;68679;51.030;7.584;2024-01-15T07:18:37;97453.53;;;1.92;76.95
79250;BME280;68679;51.030;7.584;2024-01-15T07:21:02;97446.03;;;1.90;77.20
79250;BME280;68679;51.030;7.584;2024-01-15T07:23:28;97454.81;;;1.89;77.05
79250;BME280;68679;51.030;7.584;2024-01-15T07:25:53;97448.63;;;1.90;76.59
79250;BME280;68679;51.030;7.584;2024-01-15T07:28:19;97450.44;;;1.90;77.11
79250;BME280;68679;51.030;7.584;2024-01-15T07:30:44;97445.25;;;1.90;77.00
79250;BME280;68679;51.030;7.584;2024-01-15T07:33:10;97446.31;;;1.88;76.86
79250;BME280;68679;51.030;7.584;2024-01-15T07:35:35;97447.59;;;1.91;76.80
79250;BME280;68679;51.030;7.584;2024-01-15T07:38:01;97454.56;;;1.91;76.68
79250;BME280;68679;51.030;7.584;2024-01-15T07:40:26;97453.78;;;1.85;76.79
79250;BME280;68679;51.030;7.584;2024-01-15T07:42:51;97453.50;;;1.86;77.02
79250;BME280;68679;51.030;7.584;2024-01-15T07:45:17;97450.16;;;1.86;77.09
79250;BME280;68679;51.030;7.584;2024-01-15T07:47:43;97447.81;;;1.84;77.14
79250;BME280;68679;51.030;7.584;2024-01-15T07:50:09;97442.91;;;1.83;76.84
79250;BME280;68679;51.030;7.584;2024-01-15T07:52:35;97451.44;;;1.83;76.97
79250;BME280;68679;51.030;7.584;2024-01-15T07:55:00;97447.81;;;1.84;77.15
79250;BME280;68679;51.030;7.584;2024-01-15T07:57:26;97448.59;;;1.85;77.23
79250;BME280;68679;51.030;7.584;2024-01-15T07:59:51;97442.41;;;1.86;76.87
79250;BME280;68679;51.030;7.584;2024-01-15T08:02:17;97440.59;;;1.86;77.09
79250;BME280;68679;51.030;7.584;2024-01-15T08:04:42;97434.91;;;1.84;77.04
79250;BME280;68679;51.030;7.584;2024-01-15T08:07:08;97439.56;;;1.87;77.11
79250;BME280;68679;51.030;7.584;2024-01-15T08:09:34;97435.69;;;1.90;77.18
79250;BME280;68679;51.030;7.584;2024-01-15T08:11:59;97436.72;;;1.89;77.23
79250;BME280;68679;51.030;7.584;2024-01-15T08:14:25;97444.50;;;1.89;77.02
79250;BME280;68679;51.030;7.584;2024-01-15T08:16:50;97440.88;;;1.90;77.11
79250;BME280;68679;51.030;7.584;2024-01-15T08:19:16;97439.31;;;1.89;76.99
79250;BME280;68679;51.030;7.584;2024-01-15T08:21:41;97437.22;;;1.86;77.21
79250;BME280;68679;51.030;7.584;2024-01-15T08:24:06;97435.97;;;1.88;76.77
79250;BME280;68679;51.030;7.584;2024-01-15T08:26:32;97438.28;;;1.90;76.88
79250;BME280;68679;51.030;7.584;2024-01-15T08:28:58;97434.41;;;1.93;76.97
79250;BME280;68679;51.030;7.584;2024-01-15T08:31:23;97437.75;;;1.93;76.70
79250;BME280;68679;51.030;7.584;2024-01-15T08:33:49;97427.44;;;1.93;76.87
79250;BME280;68679;51.030;7.584;2024-01-15T08:36:14;97428.19;;;1.94;76.87
79250;BME280;68679;51.030;7.584;2024-01-15T08:38:39;97428.19;;;1.94;76.62
79250;BME280;68679;51.030;7.584;2024-01-15T08:41:05;97430.03;;;1.98;76.84
79250;BME280;68679;51.030;7.584;2024-01-15T08:43:30;97428.75;;;1.96;76.54
79250;BME280;68679;51.030;7.584;2024-01-15T08:45:58;97425.38;;;1.95;76.87
79250;BME280;68679;51.030;7.584;2024-01-15T08:48:24;97422.81;;;1.95;76.98
79250;BME280;68679;51.030;7.584;2024-01-15T08:50:52;97424.06;;;1.93;76.68
79250;BME280;68679;51.030;7.584;2024-01-15T08:53:17;97425.09;;;1.92;76.92
79250;BME280;68679;51.030;7.584;2024-01-15T08:55:43;97431.03;;;1.92;76.93
79250;BME280;68679;51.030;7.584;2024-01-15T08:58:09;97426.66;;;1.93;76.91
79250;BME280;68679;51.030;7.584;2024-01-15T09:00:34;97421.22;;;1.94;77.09
79250;BME280;68679;51.030;7.584;2024-01-15T09:02:59;97426.66;;;1.93;76.97
79250;BME280;68679;51.030;7.584;2024-01-15T09:05:25;97425.88;;;1.92;76.87
79250;BME280;68679;51.030;7.584;2024-01-15T09:07:50;97435.44;;;1.92;77.13
79250;BME280;68679;51.030;7.584;2024-01-15T09:10:17;97425.88;;;1.92;77.17
79250;BME280;68679;51.030;7.584;2024-01-15T09:12:42;97424.59;;;1.90;77.21
79250;BME280;68679;51.030;7.584;2024-01-15T09:15:08;97425.38;;;1.95;77.22
79250;BME280;68679;51.030;7.584;2024-01-15T09:17:33;97433.38;;;1.99;77.06
79250;BME280;68679;51.030;7.584;2024-01-15T09:19:59;97428.75;;;1.96;76.96
79250;BME280;68679;51.030;7.584;2024-01-15T09:22:24;97435.94;;;1.94;77.16
79250;BME280;68679;51.030;7.584;2024-01-15T09:24:49;97426.66;;;1.93;76.99
79250;BME280;68679;51.030;7.584;2024-01-15T09:27:15;97424.59;;;1.90;77.07
79250;BME280;68679;51.030;7.584;2024-01-15T09:29:41;97430.00;;;1.88;77.16
79250;BME280;68679;51.030;7.584;2024-01-15T09:32:08;97433.88;;;1.91;76.98
79250;BME280;68679;51.030;7.584;2024-01-15T09:34:34;97428.72;;;1.91;76.94
79250;BME280;68679;51.030;7.584;2024-01-15T09:36:59;97432.09;;;1.91;77.05
79250;BME280;68679;51.030;7.584;2024-01-15T09:39:25;97425.88;;;1.92;76.92
79250;BME280;68679;51.030;7.584;2024-01-15T09:41:51;97423.03;;;1.94;77.05
79250;BME280;68679;51.030;7.584;2024-01-15T09:44:17;97427.44;;;1.93;76.92
79250;BME280;68679;51.030;7.584;2024-01-15T09:46:43;97434.16;;;1.94;77.07
79250;BME280;68679;51.030;7.584;2024-01-15T09:49:10;97439.09;;;1.96;77.12
79250;BME280;68679;51.030;7.584;2024-01-15T09:51:35;97430.78;;;1.94;77.28
79250;BME280;68679;51.030;7.584;2024-01-15T09:54:02;97435.19;;;1.93;77.10
79250;BME280;68679;51.030;7.584;2024-01-15T09:56:27;97442.16;;;1.93;77.42
79250;BME280;68679;51.030;7.584;2024-01-15T09:58:52;97432.84;;;1.92;77.19
79250;BME280;68679;51.030;7.584;2024-01-15T10:01:20;97432.09;;;1.91;77.35
79250;BME280;68679;51.030;7.584;2024-01-15T10:03:46;97436.50;;;1.96;76.98
79250;BME280;68679;51.030;7.584;2024-01-15T10:06:16;97441.91;;;1.94;76.96
79250;BME280;68679;51.030;7.584;2024-01-15T10:08:48;97439.84;;;1.91;77.05
79250;BME280;68679;51.030;7.584;2024-01-15T10:11:14;97440.59;;;1.92;77.18
79250;BME280;68679;51.030;7.584;2024-01-15T10:13:39;97434.41;;;1.93;77.17
79250;BME280;68679;51.030;7.584;2024-01-15T10:16:05;97440.88;;;1.90;77.23
79250;BME280;68679;51.030;7.584;2024-01-15T10:18:31;97430.78;;;1.88;77.39
79250;BME280;68679;51.030;7.584;2024-01-15T10:20:57;97433.38;;;1.88;77.22
79250;BME280;68679;51.030;7.584;2024-01-15T10:23:25;97426.91;;;1.91;77.42
79250;BME280;68679;51.030;7.584;2024-01-15T10:25:50;97435.69;;;1.90;77.27
79250;BME280;68679;51.030;7.584;2024-01-15T10:28:18;97432.34;;;1.90;77.19
79250;BME280;68679;51.030;7.584;2024-01-15T10:30:44;97441.66;;;1.91;77.25
79250;BME280;68679;51.030;7.584;2024-01-15T10:33:09;97434.16;;;1.94;77.14
79250;BME280;68679;51.030;7.584;2024-01-15T10:35:36;97437.25;;;1.91;76.95
79250;BME280;68679;51.030;7.584;2024-01-15T10:38:02;97436.72;;;1.89;77.36
79250;BME280;68679;51.030;7.584;2024-01-15T10:40:29;97434.16;;;1.89;77.09
79250;BME280;68679;51.030;7.584;2024-01-15T10:42:54;97435.69;;;1.85;77.18
79250;BME280;68679;51.030;7.584;2024-01-15T10:45:20;97439.81;;;1.86;77.53
79250;BME280;68679;51.030;7.584;2024-01-15T10:47:46;97430.50;;;1.85;77.17
79250;BME280;68679;51.030;7.584;2024-01-15T10:50:12;97439.31;;;1.89;77.27
79250;BME280;68679;51.030;7.584;2024-01-15T10:52:38;97438.00;;;1.86;77.07
79250;BME280;68679;51.030;7.584;2024-01-15T10:55:08;97448.59;;;1.85;77.28
79250;BME280;68679;51.030;7.584;2024-01-15T10:57:35;97430.25;;;1.76;76.88
79250;BME280;68679;51.030;7.584;2024-01-15T11:00:01;97435.66;;;1.80;77.25
79250;BME280;68679;51.030;7.584;2024-01-15T11:02:29;97442.16;;;1.82;77.26
79250;BME280;68679;51.030;7.584;2024-01-15T11:04:55;97435.94;;;1.83;77.24
79250;BME280;68679;51.030;7.584;2024-01-15T11:07:22;97442.91;;;1.83;77.34
79250;BME280;68679;51.030;7.584;2024-01-15T11:09:49;97437.50;;;1.84;77.35
79250;BME280;68679;51.030;7.584;2024-01-15T11:12:16;97436.19;;;1.87;77.32
79250;BME280;68679;51.030;7.584;2024-01-15T11:14:47;97443.16;;;1.86;77.64
79250;BME280;68679;51.030;7.584;2024-01-15T11:17:13;97435.69;;;1.85;77.29
79250;BME280;68679;51.030;7.584;2024-01-15T11:19:44;97441.38;;;1.87;77.19
79250;BME280;68679;51.030;7.584;2024-01-15T11:22:46;97435.16;;;1.83;77.29
79250;BME280;68679;51.030;7.584;2024-01-15T11:25:03;97430.78;;;1.83;77.25
79250;BME280;68679;51.030;7.584;2024-01-15T11:27:49;97433.38;;;1.88;77.47
79250;BME280;68679;51.030;7.584;2024-01-15T11:30:20;97434.16;;;1.89;77.22
79250;BME280;68679;51.030;7.584;2024-01-15T11:32:49;97452.25;;;1.89;77.42
79250;BME280;68679;51.030;7.584;2024-01-15T11:35:14;97454.03;;;1.94;77.34
79250;BME280;68679;51.030;7.584;2024-01-15T11:40:19;97444.72;;;1.87;77.28
79250;BME280;68679;51.030;7.584;2024-01-15T11:42:45;97440.84;;;1.85;77.13
79250;BME280;68679;51.030;7.584;2024-01-15T11:45:11;97441.38;;;1.87;77.21
79250;BME280;68679;51.030;7.584;2024-01-15T11:50:22;97445.50;;;1.88;77.39
79250;BME280;68679;51.030;7.584;2024-01-15T11:53:00;97445.78;;;1.92;77.26
79250;BME280;68679;51.030;7.584;2024-01-15T11:55:38;97453.53;;;1.92;77.34
79250;BME280;68679;51.030;7.584;2024-01-15T11:58:08;97448.09;;;1.93;77.22
79250;BME280;68679;51.030;7.584;2024-01-15T12:00:40;97449.41;;;1.91;77.27
79250;BME280;68679;51.030;7.584;2024-01-15T12:03:06;97457.16;;;1.91;77.19
79250;BME280;68679;51.030;7.584;2024-01-15T12:05:37;97454.03;;;1.94;77.18
79250;BME280;68679;51.030;7.584;2024-01-15T12:08:02;97458.44;;;1.93;77.11
79250;BME280;68679;51.030;7.584;2024-01-15T12:10:27;97452.50;;;1.93;77.04
79250;BME280;68679;51.030;7.584;2024-01-15T12:13:00;97442.94;;;1.93;77.22
79250;BME280;68679;51.030;7.584;2024-01-15T12:15:29;97455.59;;;1.90;77.05
79250;BME280;68679;51.030;7.584;2024-01-15T12:17:55;97454.06;;;1.88;77.27
79250;BME280;68679;51.030;7.584;2024-01-15T12:20:23;97464.38;;;1.88;77.43
79250;BME280;68679;51.030;7.584;2024-01-15T12:22:49;97460.00;;;1.89;77.28
79250;BME280;68679;51.030;7.584;2024-01-15T12:25:14;97461.53;;;1.90;77.27
79250;BME280;68679;51.030;7.584;2024-01-15T12:27:39;97457.41;;;1.89;77.13
79250;BME280;68679;51.030;7.584;2024-01-15T12:30:05;97456.63;;;1.83;77.13
79250;BME280;68679;51.030;7.584;2024-01-15T12:32:32;97451.97;;;1.85;77.27
79250;BME280;68679;51.030;7.584;2024-01-15T12:34:57;97464.38;;;1.88;77.20
79250;BME280;68679;51.030;7.584;2024-01-15T12:37:24;97459.47;;;1.92;77.48
79250;BME280;68679;51.030;7.584;2024-01-15T12:39:51;97456.63;;;1.88;77.24
79250;BME280;68679;51.030;7.584;2024-01-15T12:42:17;97456.09;;;1.86;77.12
79250;BME280;68679;51.030;7.584;2024-01-15T12:44:44;97458.16;;;1.84;77.36
79250;BME280;68679;51.030;7.584;2024-01-15T12:47:10;97458.16;;;1.84;77.41
79250;BME280;68679;51.030;7.584;2024-01-15T12:49:38;97459.44;;;1.87;77.56
79250;BME280;68679;51.030;7.584;2024-01-15T12:52:08;97459.44;;;1.82;77.29
79250;BME280;68679;51.030;7.584;2024-01-15T12:54:33;97461.25;;;1.81;77.33
79250;BME280;68679;51.030;7.584;2024-01-15T12:56:59;97471.84;;;1.85;77.47
79250;BME280;68679;51.030;7.584;2024-01-15T12:59:24;97473.16;;;1.87;77.32
79250;BME280;68679;51.030;7.584;2024-01-15T13:01:49;97468.25;;;1.86;77.50
79250;BME280;68679;51.030;7.584;2024-01-15T13:04:22;97466.72;;;1.90;77.22
79250;BME280;68679;51.030;7.584;2024-01-15T13:06:48;97474.19;;;1.86;77.16
79250;BME280;68679;51.030;7.584;2024-01-15T13:09:14;97472.63;;;1.85;77.43
79250;BME280;68679;51.030;7.584;2024-01-15T13:11:39;97466.69;;;1.85;77.28